createdAt,value
2019-05-07T00:01:17.673Z,10.13
2019-05-07T00:03:46.502Z,10.00
2019-05-07T00:06:15.702Z,10.37
2019-05-07T00:08:45.073Z,11.60
2019-05-07T00:11:14.111Z,9.57
2019-05-07T00:13:44.516Z,9.93
2019-05-07T00:16:13.591Z,9.77
2019-05-07T00:18:43.023Z,11.13
2019-05-07T00:21:12.635Z,10.77
2019-05-07T00:23:43.208Z,11.03
2019-05-07T00:26:13.237Z,10.47
2019-05-07T00:28:43.190Z,9.87
2019-05-07T00:31:12.494Z,10.20
2019-05-07T00:33:43.204Z,9.73
2019-05-07T00:36:18.933Z,9.70
2019-05-07T00:38:52.140Z,10.13
2019-05-07T00:41:34.751Z,11.13
2019-05-07T00:44:04.368Z,10.03
2019-05-07T00:46:33.474Z,10.57
2019-05-07T00:49:02.480Z,11.00
2019-05-07T00:51:35.375Z,9.97
2019-05-07T00:54:05.602Z,9.57
2019-05-07T00:56:34.619Z,10.27
2019-05-07T00:59:03.581Z,10.40
2019-05-07T01:01:33.563Z,10.30
2019-05-07T01:04:02.762Z,9.97
2019-05-07T01:06:42.353Z,10.50
2019-05-07T01:09:12.297Z,10.83
2019-05-07T01:11:42.938Z,11.37
2019-05-07T01:14:12.431Z,11.67
2019-05-07T01:16:42.202Z,11.97
2019-05-07T01:19:12.576Z,12.23
2019-05-07T01:21:43.230Z,12.87
2019-05-07T01:24:12.674Z,13.03
2019-05-07T01:26:42.559Z,11.63
2019-05-07T01:29:12.860Z,11.23
2019-05-07T01:31:52.530Z,11.13
2019-05-07T01:34:27.985Z,10.17
2019-05-07T01:36:56.997Z,9.90
2019-05-07T01:39:25.901Z,10.63
2019-05-07T01:41:54.976Z,10.57
2019-05-07T01:44:24.243Z,10.03
2019-05-07T01:46:53.075Z,11.50
2019-05-07T01:49:24.064Z,10.70
2019-05-07T01:51:53.064Z,9.77
2019-05-07T01:54:23.840Z,10.00
2019-05-07T01:56:52.963Z,10.27
2019-05-07T01:59:22.453Z,9.90
2019-05-07T02:01:53.319Z,9.63
2019-05-07T02:04:47.459Z,10.50
2019-05-07T02:07:23.280Z,9.93
2019-05-07T02:09:57.316Z,10.60
2019-05-07T02:12:28.965Z,9.73
2019-05-07T02:14:57.922Z,10.23
2019-05-07T02:17:26.996Z,10.00
2019-05-07T02:19:56.057Z,10.70
2019-05-07T02:22:25.127Z,10.13
2019-05-07T02:24:54.537Z,10.23
2019-05-07T02:27:23.418Z,10.37
2019-05-07T02:29:52.816Z,10.77
2019-05-07T02:32:23.991Z,9.93
2019-05-07T02:34:54.446Z,10.70
2019-05-07T02:37:37.633Z,9.60
2019-05-07T02:40:14.118Z,10.77
2019-05-07T02:42:44.418Z,11.33
2019-05-07T02:45:39.445Z,12.50
2019-05-07T02:48:08.831Z,10.93
2019-05-07T02:50:44.745Z,11.47
2019-05-07T02:53:23.071Z,11.00
2019-05-07T02:55:54.316Z,11.77
2019-05-07T02:58:24.163Z,11.27
2019-05-07T03:00:53.515Z,11.63
2019-05-07T03:03:24.648Z,10.87
2019-05-07T03:05:53.850Z,11.73
2019-05-07T03:08:27.143Z,11.20
2019-05-07T03:10:53.994Z,11.17
2019-05-07T03:13:23.952Z,11.50
2019-05-07T03:15:53.990Z,11.90
2019-05-07T03:18:23.925Z,12.60
2019-05-07T03:20:57.913Z,11.30
2019-05-07T03:23:34.024Z,12.60
2019-05-07T03:26:09.077Z,11.93
2019-05-07T03:29:00.040Z,12.03
2019-05-07T03:31:48.094Z,11.63
2019-05-07T03:34:27.949Z,12.63
2019-05-07T03:36:57.714Z,12.13
2019-05-07T03:39:27.205Z,12.03
2019-05-07T03:41:56.178Z,11.87
2019-05-07T03:44:33.792Z,12.53
2019-05-07T03:47:16.501Z,11.87
2019-05-07T03:49:45.585Z,12.13
2019-05-07T03:52:14.564Z,12.20
2019-05-07T03:54:43.606Z,12.90
2019-05-07T03:57:15.624Z,12.83
2019-05-07T03:59:43.522Z,12.43
2019-05-07T04:02:14.182Z,12.53
2019-05-07T04:04:43.573Z,12.63
2019-05-07T04:07:13.824Z,12.40
2019-05-07T04:09:43.742Z,13.63
2019-05-07T04:12:13.437Z,12.87
2019-05-07T04:14:43.175Z,13.47
2019-05-07T04:17:16.851Z,13.57
2019-05-07T04:19:44.051Z,14.40
2019-05-07T04:22:13.725Z,14.30
2019-05-07T04:24:54.623Z,13.93
2019-05-07T04:27:28.778Z,14.37
2019-05-07T04:29:57.736Z,12.00
2019-05-07T04:32:33.446Z,13.97
2019-05-07T04:35:09.509Z,14.40
2019-05-07T04:37:38.397Z,14.90
2019-05-07T04:40:07.475Z,14.63
2019-05-07T04:42:36.375Z,13.10
2019-05-07T04:45:05.904Z,13.50
2019-05-07T04:47:42.907Z,14.27
2019-05-07T04:50:06.669Z,14.00
2019-05-07T04:52:37.163Z,14.57
2019-05-07T04:55:07.208Z,14.77
2019-05-07T04:57:36.344Z,15.03
2019-05-07T05:00:07.488Z,13.80
2019-05-07T05:02:54.293Z,14.20
2019-05-07T05:05:24.084Z,15.17
2019-05-07T05:07:53.540Z,15.50
2019-05-07T05:10:23.381Z,13.70
2019-05-07T05:12:53.685Z,14.20
2019-05-07T05:15:22.995Z,13.63
2019-05-07T05:17:54.031Z,13.73
2019-05-07T05:20:29.796Z,13.67
2019-05-07T05:23:12.238Z,13.53
2019-05-07T05:25:43.110Z,13.50
2019-05-07T05:28:13.159Z,13.67
2019-05-07T05:30:45.599Z,13.40
2019-05-07T05:33:14.770Z,13.40
2019-05-07T05:35:44.123Z,14.33
2019-05-07T05:38:13.243Z,14.47
2019-05-07T05:40:42.830Z,13.77
2019-05-07T05:43:36.355Z,14.03
2019-05-07T05:46:06.283Z,13.43
2019-05-07T05:48:35.644Z,13.53
2019-05-07T05:51:23.775Z,13.80
2019-05-07T05:53:57.946Z,13.10
2019-05-07T05:56:42.812Z,13.33
2019-05-07T05:59:47.335Z,13.27
2019-05-07T06:02:16.042Z,12.97
2019-05-07T06:04:58.769Z,12.83
2019-05-07T06:07:38.363Z,13.03
2019-05-07T06:10:16.411Z,11.20
2019-05-07T06:12:52.288Z,12.67
2019-05-07T06:15:43.264Z,11.93
2019-05-07T06:18:32.724Z,11.67
2019-05-07T06:21:12.577Z,12.07
2019-05-07T06:23:46.167Z,13.00
2019-05-07T06:26:15.198Z,12.13
2019-05-07T06:28:44.615Z,13.37
2019-05-07T06:31:13.982Z,11.93
2019-05-07T06:33:43.097Z,11.60
2019-05-07T06:36:12.606Z,12.60
2019-05-07T06:38:50.613Z,12.67
2019-05-07T06:41:29.678Z,11.93
2019-05-07T06:44:02.168Z,12.67
2019-05-07T06:46:32.298Z,11.50
2019-05-07T06:49:02.190Z,13.03
2019-05-07T06:51:32.862Z,11.50
2019-05-07T06:54:02.796Z,13.23
2019-05-07T06:56:32.541Z,12.00
2019-05-07T06:59:09.635Z,11.53
2019-05-07T07:01:59.222Z,12.40
2019-05-07T07:04:47.549Z,12.83
2019-05-07T07:07:27.434Z,12.73
2019-05-07T07:10:25.837Z,11.93
2019-05-07T07:12:55.047Z,11.57
2019-05-07T07:15:24.143Z,11.13
2019-05-07T07:17:53.228Z,11.93
2019-05-07T07:20:22.346Z,12.40
2019-05-07T07:22:52.077Z,13.03
2019-05-07T07:25:22.865Z,13.57
2019-05-07T07:27:52.300Z,12.20
2019-05-07T07:30:28.633Z,13.37
2019-05-07T07:32:59.140Z,13.57
2019-05-07T07:35:28.161Z,13.67
2019-05-07T07:37:57.196Z,13.07
2019-05-07T07:40:42.194Z,13.50
2019-05-07T07:43:12.866Z,14.97
2019-05-07T07:45:42.129Z,13.60
2019-05-07T07:48:13.151Z,13.63
2019-05-07T07:50:42.162Z,11.67
2019-05-07T07:53:13.010Z,12.33
2019-05-07T07:58:31.479Z,12.77
2019-05-07T08:01:12.200Z,14.23
2019-05-07T08:03:41.855Z,13.30
2019-05-07T08:06:11.937Z,13.57
2019-05-07T08:08:42.423Z,13.87
2019-05-07T08:11:12.657Z,12.83
2019-05-07T08:13:42.548Z,15.33
2019-05-07T08:16:12.935Z,13.43
2019-05-07T08:18:43.595Z,12.43
2019-05-07T08:21:12.910Z,12.67
2019-05-07T08:23:42.433Z,13.73
2019-05-07T08:26:12.718Z,13.70
2019-05-07T08:28:42.017Z,16.13
2019-05-07T08:31:32.985Z,14.40
2019-05-07T08:34:09.299Z,15.53
2019-05-07T08:36:38.226Z,16.40
2019-05-07T08:39:07.423Z,16.63
2019-05-07T08:41:36.587Z,16.10
2019-05-07T08:44:12.913Z,15.90
2019-05-07T08:46:47.472Z,15.67
2019-05-07T08:49:16.880Z,17.07
2019-05-07T08:51:51.852Z,18.77
2019-05-07T08:54:22.602Z,19.43
2019-05-07T08:56:52.754Z,19.03
2019-05-07T08:59:22.372Z,18.27
2019-05-07T09:01:52.022Z,18.03
2019-05-07T09:04:43.202Z,16.70
2019-05-07T09:07:13.159Z,17.87
2019-05-07T09:09:42.844Z,16.97
2019-05-07T09:12:12.535Z,17.27
2019-05-07T09:14:42.545Z,15.93
2019-05-07T09:17:12.820Z,16.17
2019-05-07T09:19:50.687Z,16.80
2019-05-07T09:22:12.964Z,16.60
2019-05-07T09:24:42.566Z,16.27
2019-05-07T09:27:22.312Z,13.47
2019-05-07T09:30:12.830Z,13.22
2019-05-07T09:32:54.807Z,14.93
2019-05-07T09:35:28.077Z,15.63
2019-05-07T09:37:57.115Z,16.70
2019-05-07T09:40:26.133Z,15.70
2019-05-07T09:42:55.767Z,15.20
2019-05-07T09:45:24.899Z,16.30
2019-05-07T09:47:53.966Z,16.07
2019-05-07T09:50:22.992Z,15.50
2019-05-07T09:52:52.039Z,15.08
2019-05-07T09:55:23.176Z,16.20
2019-05-07T09:57:52.725Z,15.20
2019-05-07T10:00:22.998Z,15.43
2019-05-07T10:02:52.854Z,16.15
2019-05-07T10:05:22.245Z,14.90
2019-05-07T10:07:52.620Z,15.40
2019-05-07T10:10:22.341Z,16.25
2019-05-07T10:13:01.909Z,14.93
2019-05-07T10:15:33.153Z,14.83
2019-05-07T10:18:08.265Z,14.35
2019-05-07T10:20:37.344Z,14.33
2019-05-07T10:23:08.143Z,15.20
2019-05-07T10:25:40.818Z,13.83
2019-05-07T10:28:09.835Z,13.93
2019-05-07T10:30:38.885Z,14.68
2019-05-07T10:33:07.922Z,14.58
2019-05-07T10:35:37.084Z,14.23
2019-05-07T10:38:06.126Z,12.93
2019-05-07T10:40:35.180Z,13.93
2019-05-07T10:43:04.260Z,14.03
2019-05-07T10:45:56.652Z,13.72
2019-05-07T10:48:32.776Z,14.40
2019-05-07T10:51:02.172Z,15.17
2019-05-07T10:53:32.018Z,14.00
2019-05-07T10:56:02.697Z,13.10
2019-05-07T10:58:32.232Z,12.97
2019-05-07T11:01:02.906Z,12.50
2019-05-07T11:03:32.489Z,10.23
2019-05-07T11:06:01.705Z,10.77
2019-05-07T11:08:32.678Z,11.37
2019-05-07T11:11:02.872Z,10.40
2019-05-07T11:13:32.728Z,12.83
2019-05-07T11:16:08.804Z,13.43
2019-05-07T11:18:42.633Z,14.63
2019-05-07T11:21:11.953Z,14.33
2019-05-07T11:23:41.898Z,14.07
2019-05-07T11:26:11.772Z,15.77
2019-05-07T11:28:40.908Z,16.23
2019-05-07T11:31:12.044Z,15.13
2019-05-07T11:33:41.641Z,14.53
2019-05-07T11:36:10.914Z,14.37
2019-05-07T11:38:42.238Z,14.87
2019-05-07T11:41:12.644Z,14.03
2019-05-07T11:44:05.512Z,14.80
2019-05-07T11:46:44.476Z,12.97
2019-05-07T11:49:27.027Z,12.23
2019-05-07T11:52:01.058Z,10.93
2019-05-07T11:54:31.865Z,10.30
2019-05-07T11:57:02.680Z,11.00
2019-05-07T11:59:32.587Z,11.13
2019-05-07T12:02:04.356Z,11.08
2019-05-07T12:04:33.472Z,10.72
2019-05-07T12:07:02.845Z,11.38
2019-05-07T12:09:33.281Z,10.60
2019-05-07T12:12:02.590Z,10.10
2019-05-07T12:14:34.710Z,8.95
2019-05-07T12:17:02.783Z,9.83
2019-05-07T12:19:33.041Z,8.80
2019-05-07T12:22:03.048Z,7.73
2019-05-07T12:24:32.850Z,8.40
2019-05-07T12:27:02.664Z,7.87
2019-05-07T12:29:32.380Z,8.47
2019-05-07T12:32:16.495Z,8.87
2019-05-07T12:34:48.652Z,8.17
2019-05-07T12:37:17.723Z,7.60
2019-05-07T12:39:46.857Z,8.08
2019-05-07T12:42:15.924Z,7.60
2019-05-07T12:44:45.087Z,7.45
2019-05-07T12:47:15.352Z,8.18
2019-05-07T12:49:44.651Z,8.13
2019-05-07T12:52:42.494Z,7.50
2019-05-07T12:55:17.833Z,7.77
2019-05-07T12:57:46.801Z,8.23
2019-05-07T13:00:34.410Z,8.17
2019-05-07T13:03:12.792Z,7.10
2019-05-07T13:05:42.007Z,7.33
2019-05-07T13:08:12.320Z,6.90
2019-05-07T13:10:42.886Z,6.00
2019-05-07T13:13:12.364Z,6.53
2019-05-07T13:15:43.261Z,6.40
2019-05-07T13:18:12.739Z,7.10
2019-05-07T13:20:42.120Z,6.93
2019-05-07T13:23:11.966Z,7.03
2019-05-07T13:25:42.904Z,8.17
2019-05-07T13:28:12.063Z,7.10
2019-05-07T13:30:43.604Z,7.20
2019-05-07T13:33:12.958Z,7.23
2019-05-07T13:35:44.392Z,8.27
2019-05-07T13:38:32.313Z,18.37
2019-05-07T13:41:23.872Z,7.53
2019-05-07T13:44:04.947Z,7.57
2019-05-07T13:46:34.589Z,7.83
2019-05-07T13:49:03.736Z,7.53
2019-05-07T13:51:33.789Z,7.47
2019-05-07T13:54:03.461Z,6.90
2019-05-07T13:56:32.730Z,7.43
2019-05-07T13:59:04.655Z,7.10
2019-05-07T14:01:51.673Z,6.60
2019-05-07T14:04:22.283Z,6.87
2019-05-07T14:06:52.961Z,6.40
2019-05-07T14:09:24.418Z,6.47
2019-05-07T14:11:53.693Z,6.80
2019-05-07T14:14:22.877Z,6.83
2019-05-07T14:16:53.045Z,7.30
2019-05-07T14:19:22.668Z,6.50
2019-05-07T14:21:52.705Z,6.57
2019-05-07T14:24:22.673Z,6.17
2019-05-07T14:26:52.917Z,6.27
2019-05-07T14:29:24.570Z,11.30
2019-05-07T14:32:17.968Z,6.57
2019-05-07T14:35:04.718Z,5.97
2019-05-07T14:37:37.317Z,5.50
2019-05-07T14:40:07.469Z,6.23
2019-05-07T14:42:47.548Z,7.63
2019-05-07T14:45:16.569Z,5.83
2019-05-07T14:47:45.605Z,6.07
2019-05-07T14:50:15.727Z,5.67
2019-05-07T14:52:44.793Z,6.10
2019-05-07T14:55:13.911Z,5.50
2019-05-07T14:57:42.981Z,6.73
2019-05-07T15:00:12.648Z,5.63
2019-05-07T15:02:42.353Z,6.33
2019-05-07T15:05:12.195Z,5.60
2019-05-07T15:07:50.914Z,5.40
2019-05-07T15:10:22.079Z,5.43
2019-05-07T15:12:52.200Z,5.40
2019-05-07T15:15:21.940Z,5.00
2019-05-07T15:18:12.137Z,5.90
2019-05-07T15:20:41.929Z,5.73
2019-05-07T15:23:28.616Z,5.13
2019-05-07T15:25:58.368Z,5.40
2019-05-07T15:28:29.696Z,5.87
2019-05-07T15:31:08.359Z,5.73
2019-05-07T15:33:37.431Z,5.43
2019-05-07T15:36:06.726Z,5.07
2019-05-07T15:38:36.168Z,4.80
2019-05-07T15:41:06.060Z,6.17
2019-05-07T15:43:35.211Z,5.20
2019-05-07T15:46:04.323Z,5.30
2019-05-07T15:48:33.452Z,4.90
2019-05-07T15:51:03.216Z,4.67
2019-05-07T15:53:42.603Z,5.43
2019-05-07T15:56:12.481Z,5.23
2019-05-07T15:58:42.611Z,5.00
2019-05-07T16:01:12.810Z,4.57
2019-05-07T16:03:43.773Z,5.20
2019-05-07T16:06:12.965Z,4.83
2019-05-07T16:08:49.073Z,5.47
2019-05-07T16:11:17.720Z,4.30
2019-05-07T16:13:52.801Z,4.37
2019-05-07T16:16:23.551Z,4.37
2019-05-07T16:19:11.879Z,5.03
2019-05-07T16:21:42.561Z,4.60
2019-05-07T16:24:12.167Z,4.50
2019-05-07T16:26:41.881Z,4.30
2019-05-07T16:29:13.353Z,4.50
2019-05-07T16:31:43.874Z,5.13
2019-05-07T16:34:13.016Z,4.77
2019-05-07T16:36:42.296Z,4.27
2019-05-07T16:39:12.047Z,4.80
2019-05-07T16:41:42.257Z,4.20
2019-05-07T16:44:12.299Z,4.40
2019-05-07T16:46:42.182Z,4.27
2019-05-07T16:49:12.077Z,5.00
2019-05-07T16:51:44.267Z,4.60
2019-05-07T16:54:12.317Z,4.30
2019-05-07T16:57:02.943Z,4.00
2019-05-07T16:59:32.446Z,4.17
2019-05-07T17:02:05.811Z,4.13
2019-05-07T17:04:34.864Z,3.90
2019-05-07T17:07:05.924Z,4.33
2019-05-07T17:09:35.463Z,3.93
2019-05-07T17:12:07.209Z,4.20
2019-05-07T17:14:36.186Z,3.93
2019-05-07T17:17:05.256Z,3.83
2019-05-07T17:19:34.350Z,3.70
2019-05-07T17:22:06.197Z,4.30
2019-05-07T17:24:33.881Z,4.23
2019-05-07T17:27:02.849Z,4.13
2019-05-07T17:29:32.220Z,4.13
2019-05-07T17:32:01.713Z,4.47
2019-05-07T17:34:30.920Z,4.43
2019-05-07T17:37:01.842Z,3.67
2019-05-07T17:39:32.185Z,3.87
2019-05-07T17:42:02.499Z,4.43
2019-05-07T17:44:32.519Z,4.13
2019-05-07T17:47:02.068Z,4.17
2019-05-07T17:49:32.763Z,4.57
2019-05-07T17:52:02.988Z,3.87
2019-05-07T17:54:32.477Z,4.30
2019-05-07T17:57:02.098Z,7.63
2019-05-07T17:59:32.072Z,5.20
2019-05-07T18:02:13.941Z,3.97
2019-05-07T18:04:50.763Z,6.17
2019-05-07T18:07:16.122Z,5.17
2019-05-07T18:09:45.173Z,4.87
2019-05-07T18:12:14.291Z,4.43
2019-05-07T18:14:43.268Z,4.33
2019-05-07T18:17:42.027Z,4.33
2019-05-07T18:20:12.872Z,4.50
2019-05-07T18:22:42.127Z,4.17
2019-05-07T18:25:12.475Z,5.30
2019-05-07T18:27:42.114Z,5.33
2019-05-07T18:30:12.887Z,4.93
2019-05-07T18:32:49.397Z,5.40
2019-05-07T18:35:18.449Z,4.73
2019-05-07T18:37:53.595Z,5.07
2019-05-07T18:40:22.916Z,6.07
2019-05-07T18:42:52.534Z,5.83
2019-05-07T18:45:21.932Z,6.57
2019-05-07T18:47:51.696Z,5.73
2019-05-07T18:50:22.529Z,5.40
2019-05-07T18:52:52.230Z,5.60
2019-05-07T18:55:22.678Z,5.07
2019-05-07T18:57:52.030Z,5.70
2019-05-07T19:00:28.515Z,4.70
2019-05-07T19:02:57.609Z,5.43
2019-05-07T19:05:26.640Z,5.27
2019-05-07T19:08:07.014Z,5.00
2019-05-07T19:10:26.526Z,4.90
2019-05-07T19:12:55.701Z,5.07
2019-05-07T19:15:24.815Z,5.43
2019-05-07T19:17:53.785Z,5.53
2019-05-07T19:20:22.746Z,5.17
2019-05-07T19:22:51.983Z,5.50
2019-05-07T19:25:21.172Z,4.93
2019-05-07T19:27:53.188Z,4.90
2019-05-07T19:30:22.392Z,5.23
2019-05-07T19:32:52.160Z,5.10
2019-05-07T19:35:23.084Z,5.17
2019-05-07T19:37:52.879Z,5.23
2019-05-07T19:40:22.474Z,4.63
2019-05-07T19:42:52.277Z,5.30
2019-05-07T19:45:24.282Z,5.13
2019-05-07T19:47:52.427Z,4.93
2019-05-07T19:50:23.362Z,5.37
2019-05-07T19:52:52.308Z,5.60
2019-05-07T19:55:22.022Z,5.33
2019-05-07T19:57:58.938Z,5.17
2019-05-07T20:00:27.964Z,5.20
2019-05-07T20:02:59.799Z,5.80
2019-05-07T20:05:29.636Z,6.17
2019-05-07T20:08:01.919Z,5.67
2019-05-07T20:10:38.458Z,5.23
2019-05-07T20:13:07.356Z,5.23
2019-05-07T20:15:37.513Z,5.47
2019-05-07T20:18:06.707Z,5.63
2019-05-07T20:20:35.628Z,6.40
2019-05-07T20:23:04.990Z,6.07
2019-05-07T20:25:34.002Z,4.80
2019-05-07T20:28:03.077Z,5.40
2019-05-07T20:30:32.899Z,6.07
2019-05-07T20:33:03.073Z,5.83
2019-05-07T20:35:32.651Z,6.10
2019-05-07T20:38:02.905Z,5.70
2019-05-07T20:40:32.547Z,4.80
2019-05-07T20:43:02.011Z,5.30
2019-05-07T20:45:32.020Z,4.47
2019-05-07T20:48:02.509Z,5.30
2019-05-07T20:50:33.278Z,4.23
2019-05-07T20:53:02.362Z,4.80
2019-05-07T20:55:53.048Z,4.77
2019-05-07T20:58:22.227Z,5.07
2019-05-07T21:00:52.588Z,4.60
2019-05-07T21:03:23.766Z,5.40
2019-05-07T21:05:53.366Z,5.10
2019-05-07T21:08:22.859Z,5.10
2019-05-07T21:10:53.550Z,4.67
2019-05-07T21:13:33.280Z,4.83
2019-05-07T21:15:53.509Z,4.70
2019-05-07T21:18:23.276Z,5.03
2019-05-07T21:20:53.128Z,4.93
2019-05-07T21:23:23.267Z,4.80
2019-05-07T21:25:52.961Z,4.70
2019-05-07T21:28:22.173Z,5.20
2019-05-07T21:30:52.180Z,5.30
2019-05-07T21:33:22.825Z,4.67
2019-05-07T21:35:52.439Z,4.83
2019-05-07T21:38:22.407Z,5.30
2019-05-07T21:40:51.466Z,5.17
2019-05-07T21:43:22.129Z,5.10
2019-05-07T21:45:52.992Z,5.53
2019-05-07T21:48:22.413Z,5.43
2019-05-07T21:50:52.054Z,5.57
2019-05-07T21:53:45.236Z,4.97
2019-05-07T21:56:39.573Z,5.30
2019-05-07T21:59:12.685Z,4.67
2019-05-07T22:01:46.654Z,5.00
2019-05-07T22:04:15.582Z,5.03
2019-05-07T22:06:45.527Z,4.90
2019-05-07T22:09:15.283Z,5.37
2019-05-07T22:11:44.270Z,6.30
2019-05-07T22:14:13.179Z,6.57
2019-05-07T22:16:42.305Z,6.53
2019-05-07T22:19:12.116Z,5.93
2019-05-07T22:21:43.158Z,6.07
2019-05-07T22:24:13.107Z,6.40
2019-05-07T22:26:42.914Z,6.07
2019-05-07T22:29:12.527Z,6.17
2019-05-07T22:31:52.991Z,6.57
2019-05-07T22:34:35.711Z,6.17
2019-05-07T22:37:04.825Z,5.63
2019-05-07T22:39:33.744Z,5.60
2019-05-07T22:42:02.646Z,5.83
2019-05-07T22:44:32.156Z,5.67
2019-05-07T22:47:18.613Z,5.80
2019-05-07T22:49:49.493Z,6.33
2019-05-07T22:52:19.225Z,6.30
2019-05-07T22:54:48.303Z,6.23
2019-05-07T22:57:33.171Z,6.10
2019-05-07T23:00:04.496Z,5.67
2019-05-07T23:02:32.568Z,5.93
2019-05-07T23:05:02.895Z,5.73
2019-05-07T23:07:32.866Z,5.90
2019-05-07T23:10:02.870Z,5.37
2019-05-07T23:12:32.909Z,6.03
2019-05-07T23:15:02.725Z,6.00
2019-05-07T23:17:32.635Z,6.13
2019-05-07T23:20:01.894Z,5.80
2019-05-07T23:22:32.445Z,6.13
2019-05-07T23:25:01.389Z,5.53
2019-05-07T23:27:32.370Z,6.10
2019-05-07T23:30:02.559Z,5.50
2019-05-07T23:32:32.979Z,5.77
2019-05-07T23:35:02.264Z,5.90
2019-05-07T23:37:33.169Z,4.83
2019-05-07T23:40:05.922Z,5.20
2019-05-07T23:42:36.554Z,5.43
2019-05-07T23:45:05.954Z,5.50
2019-05-07T23:47:35.250Z,5.40
2019-05-07T23:50:04.349Z,5.33
2019-05-07T23:52:33.450Z,5.50
2019-05-07T23:55:02.924Z,5.83
2019-05-07T23:57:32.502Z,5.27
